createdAt,value
2019-03-13T00:00:11.831Z,-8.29
2019-03-13T00:01:11.820Z,-8.31
2019-03-13T00:02:11.848Z,-8.31
2019-03-13T00:03:23.350Z,-8.30
2019-03-13T00:04:11.794Z,-8.37
2019-03-13T00:05:19.065Z,-8.40
2019-03-13T00:06:11.768Z,-8.29
2019-03-13T00:07:11.767Z,-8.23
2019-03-13T00:08:11.747Z,-8.36
2019-03-13T00:09:11.752Z,-8.26
2019-03-13T00:10:11.765Z,-8.33
2019-03-13T00:11:11.713Z,-8.34
2019-03-13T00:12:11.709Z,-8.33
2019-03-13T00:13:11.698Z,-8.30
2019-03-13T00:14:11.691Z,-8.29
2019-03-13T00:15:11.678Z,-8.34
2019-03-13T00:16:11.711Z,-8.27
2019-03-13T00:17:11.661Z,-8.29
2019-03-13T00:18:11.648Z,-8.31
2019-03-13T00:19:11.641Z,-8.30
2019-03-13T00:20:11.622Z,-8.24
2019-03-13T00:21:11.612Z,-8.29
2019-03-13T00:22:11.642Z,-8.33
2019-03-13T00:23:11.601Z,-8.30
2019-03-13T00:24:11.582Z,-8.31
2019-03-13T00:25:11.585Z,-8.24
2019-03-13T00:26:11.561Z,-8.18
2019-03-13T00:27:11.588Z,-8.13
2019-03-13T00:28:11.580Z,-8.09
2019-03-13T00:29:11.533Z,-8.09
2019-03-13T00:30:11.539Z,-8.06
2019-03-13T00:31:11.507Z,-7.87
2019-03-13T00:32:11.500Z,-7.94
2019-03-13T00:33:11.487Z,-7.97
2019-03-13T00:34:11.502Z,-7.97
2019-03-13T00:35:11.486Z,-7.96
2019-03-13T00:36:21.488Z,-7.97
2019-03-13T00:37:11.445Z,-7.93
2019-03-13T00:38:11.442Z,-7.96
2019-03-13T00:39:11.425Z,-7.87
2019-03-13T00:40:11.430Z,-7.99
2019-03-13T00:41:11.412Z,-7.96
2019-03-13T00:42:11.424Z,-8.05
2019-03-13T00:43:11.387Z,-8.08
2019-03-13T00:44:11.376Z,-8.11
2019-03-13T00:45:11.445Z,-8.12
2019-03-13T00:46:11.359Z,-8.16
2019-03-13T00:47:11.344Z,-8.13
2019-03-13T00:48:11.337Z,-8.19
2019-03-13T00:49:11.327Z,-8.21
2019-03-13T00:50:11.336Z,-8.31
2019-03-13T00:51:11.340Z,-8.31
2019-03-13T00:52:11.298Z,-8.30
2019-03-13T00:53:11.284Z,-8.36
2019-03-13T00:54:11.270Z,-8.36
2019-03-13T00:55:11.264Z,-8.31
2019-03-13T00:56:11.249Z,-8.30
2019-03-13T00:57:11.287Z,-8.29
2019-03-13T00:58:11.228Z,-8.36
2019-03-13T00:59:11.224Z,-8.29
2019-03-13T01:00:11.212Z,-8.30
2019-03-13T01:01:11.286Z,-8.36
2019-03-13T01:02:11.189Z,-8.39
2019-03-13T01:03:11.199Z,-8.37
2019-03-13T01:04:11.207Z,-8.47
2019-03-13T01:05:11.165Z,-8.40
2019-03-13T01:06:11.162Z,-8.44
2019-03-13T01:07:21.859Z,-8.58
2019-03-13T01:08:11.124Z,-8.54
2019-03-13T01:09:11.140Z,-8.58
2019-03-13T01:10:11.105Z,-8.55
2019-03-13T01:11:11.099Z,-8.78
2019-03-13T01:12:11.084Z,-8.72
2019-03-13T01:13:11.080Z,-8.75
2019-03-13T01:14:11.093Z,-8.73
2019-03-13T01:15:11.092Z,-8.86
2019-03-13T01:16:11.044Z,-8.83
2019-03-13T01:17:11.069Z,-8.89
2019-03-13T01:18:11.020Z,-8.84
2019-03-13T01:19:11.010Z,-8.91
2019-03-13T01:20:10.999Z,-8.93
2019-03-13T01:21:11.033Z,-8.90
2019-03-13T01:22:11.001Z,-8.91
2019-03-13T01:23:10.974Z,-8.91
2019-03-13T01:24:10.958Z,-8.89
2019-03-13T01:25:10.952Z,-8.86
2019-03-13T01:26:10.947Z,-8.84
2019-03-13T01:27:10.937Z,-8.83
2019-03-13T01:28:11.040Z,-8.89
2019-03-13T01:29:10.906Z,-8.94
2019-03-13T01:30:10.897Z,-8.91
2019-03-13T01:31:10.892Z,-8.83
2019-03-13T01:32:10.896Z,-8.75
2019-03-13T01:33:10.872Z,-8.73
2019-03-13T01:34:10.888Z,-8.69
2019-03-13T01:35:10.848Z,-8.90
2019-03-13T01:36:10.837Z,-8.83
2019-03-13T01:37:10.829Z,-8.84
2019-03-13T01:38:21.462Z,-8.89
2019-03-13T01:39:10.807Z,-8.87
2019-03-13T01:40:10.796Z,-8.86
2019-03-13T01:41:10.791Z,-8.90
2019-03-13T01:42:10.775Z,-8.84
2019-03-13T01:43:10.801Z,-8.86
2019-03-13T01:44:10.792Z,-8.86
2019-03-13T01:45:10.748Z,-8.96
2019-03-13T01:46:10.733Z,-9.14
2019-03-13T01:47:10.722Z,-9.18
2019-03-13T01:48:10.713Z,-9.15
2019-03-13T01:49:10.721Z,-9.26
2019-03-13T01:50:10.724Z,-9.15
2019-03-13T01:51:10.679Z,-9.20
2019-03-13T01:52:10.705Z,-9.28
2019-03-13T01:53:10.667Z,-9.10
2019-03-13T01:54:10.649Z,-9.08
2019-03-13T01:55:10.647Z,-9.05
2019-03-13T01:56:10.665Z,-9.07
2019-03-13T01:57:10.645Z,-9.01
2019-03-13T01:58:10.611Z,-9.05
2019-03-13T01:59:10.606Z,-9.11
2019-03-13T02:00:10.592Z,-9.14
2019-03-13T02:01:10.577Z,-9.11
2019-03-13T02:02:10.588Z,-9.12
2019-03-13T02:03:10.587Z,-9.20
2019-03-13T02:04:10.548Z,-9.10
2019-03-13T02:05:10.540Z,-9.23
2019-03-13T02:06:10.532Z,-9.37
2019-03-13T02:07:10.516Z,-9.33
2019-03-13T02:08:10.654Z,-9.48
2019-03-13T02:09:21.105Z,-9.39
2019-03-13T02:10:10.483Z,-9.41
2019-03-13T02:11:10.477Z,-9.37
2019-03-13T02:12:11.438Z,-9.39
2019-03-13T02:13:10.451Z,-9.39
2019-03-13T02:14:10.451Z,-9.30
2019-03-13T02:15:10.436Z,-9.40
2019-03-13T02:16:10.421Z,-9.39
2019-03-13T02:17:10.419Z,-9.28
2019-03-13T02:18:10.399Z,-9.36
2019-03-13T02:19:10.434Z,-9.41
2019-03-13T02:20:10.381Z,-9.32
2019-03-13T02:21:10.409Z,-9.32
2019-03-13T02:22:10.362Z,-9.41
2019-03-13T02:23:10.351Z,-9.39
2019-03-13T02:24:10.373Z,-9.51
2019-03-13T02:25:10.342Z,-9.56
2019-03-13T02:26:10.318Z,-9.59
2019-03-13T02:27:10.311Z,-9.51
2019-03-13T02:28:10.301Z,-9.61
2019-03-13T02:29:10.318Z,-9.59
2019-03-13T02:30:10.282Z,-9.66
2019-03-13T02:31:10.285Z,-9.62
2019-03-13T02:32:10.254Z,-9.66
2019-03-13T02:33:10.251Z,-9.63
2019-03-13T02:34:10.240Z,-9.69
2019-03-13T02:35:10.962Z,-9.69
2019-03-13T02:36:10.223Z,-9.66
2019-03-13T02:37:10.273Z,-9.71
2019-03-13T02:38:10.193Z,-9.71
2019-03-13T02:39:10.190Z,-9.69
2019-03-13T02:40:20.716Z,-9.69
2019-03-13T02:41:10.222Z,-9.71
2019-03-13T02:42:10.160Z,-9.72
2019-03-13T02:43:10.188Z,-9.68
2019-03-13T02:44:10.147Z,-9.68
2019-03-13T02:45:10.125Z,-9.77
2019-03-13T02:46:10.113Z,-9.83
2019-03-13T02:47:10.105Z,-9.76
2019-03-13T02:48:10.099Z,-9.81
2019-03-13T02:49:10.108Z,-9.81
2019-03-13T02:50:10.072Z,-9.87
2019-03-13T02:51:10.067Z,-9.83
2019-03-13T02:52:10.055Z,-9.80
2019-03-13T02:53:10.042Z,-9.84
2019-03-13T02:54:10.030Z,-9.80
2019-03-13T02:55:10.060Z,-9.86
2019-03-13T02:56:10.009Z,-9.74
2019-03-13T02:57:10.003Z,-9.79
2019-03-13T02:58:09.991Z,-9.76
2019-03-13T02:59:09.981Z,-9.72
2019-03-13T03:00:09.993Z,-9.84
2019-03-13T03:01:10.008Z,-9.89
2019-03-13T03:02:09.950Z,-9.76
2019-03-13T03:03:09.938Z,-9.92
2019-03-13T03:04:09.951Z,-10.02
2019-03-13T03:05:09.919Z,-10.10
2019-03-13T03:06:09.999Z,-10.16
2019-03-13T03:07:12.880Z,-10.16
2019-03-13T03:08:09.894Z,-10.13
2019-03-13T03:09:09.932Z,-10.23
2019-03-13T03:10:09.867Z,-10.25
2019-03-13T03:11:20.635Z,-10.19
2019-03-13T03:12:09.844Z,-10.10
2019-03-13T03:13:09.878Z,-10.21
2019-03-13T03:14:09.830Z,-10.18
2019-03-13T03:15:09.813Z,-10.16
2019-03-13T03:16:09.836Z,-10.16
2019-03-13T03:17:09.797Z,-10.19
2019-03-13T03:18:09.786Z,-10.18
2019-03-13T03:19:09.812Z,-10.25
2019-03-13T03:20:09.795Z,-10.28
2019-03-13T03:21:09.753Z,-10.15
2019-03-13T03:22:09.753Z,-10.16
2019-03-13T03:23:09.733Z,-10.28
2019-03-13T03:24:09.723Z,-10.33
2019-03-13T03:25:09.750Z,-10.31
2019-03-13T03:26:09.710Z,-10.44
2019-03-13T03:27:09.727Z,-10.44
2019-03-13T03:28:09.686Z,-10.58
2019-03-13T03:29:09.678Z,-10.47
2019-03-13T03:30:09.666Z,-10.47
2019-03-13T03:31:09.698Z,-10.37
2019-03-13T03:32:09.648Z,-10.40
2019-03-13T03:33:09.670Z,-10.43
2019-03-13T03:34:09.626Z,-10.40
2019-03-13T03:35:09.644Z,-10.41
2019-03-13T03:36:09.606Z,-10.46
2019-03-13T03:37:09.696Z,-10.31
2019-03-13T03:38:09.583Z,-10.33
2019-03-13T03:39:09.594Z,-10.25
2019-03-13T03:40:09.573Z,-10.23
2019-03-13T03:41:09.551Z,-10.15
2019-03-13T03:42:20.041Z,-10.22
2019-03-13T03:43:09.533Z,-10.34
2019-03-13T03:44:09.526Z,-10.41
2019-03-13T03:45:09.521Z,-10.46
2019-03-13T03:46:09.508Z,-10.41
2019-03-13T03:47:09.495Z,-10.47
2019-03-13T03:48:09.546Z,-10.58
2019-03-13T03:49:09.480Z,-10.46
2019-03-13T03:50:09.466Z,-10.61
2019-03-13T03:51:09.498Z,-10.61
2019-03-13T03:52:09.447Z,-10.61
2019-03-13T03:53:09.438Z,-10.60
2019-03-13T03:54:09.461Z,-10.62
2019-03-13T03:55:09.412Z,-10.68
2019-03-13T03:56:09.440Z,-10.69
2019-03-13T03:57:09.398Z,-10.55
2019-03-13T03:58:09.384Z,-10.51
2019-03-13T03:59:09.373Z,-10.60
2019-03-13T04:00:09.386Z,-10.58
2019-03-13T04:01:09.366Z,-10.55
2019-03-13T04:02:09.374Z,-10.58
2019-03-13T04:03:09.335Z,-10.52
2019-03-13T04:04:10.000Z,-10.57
2019-03-13T04:05:09.316Z,-10.57
2019-03-13T04:06:09.344Z,-10.65
2019-03-13T04:07:09.292Z,-10.72
2019-03-13T04:08:09.317Z,-10.79
2019-03-13T04:09:09.271Z,-10.71
2019-03-13T04:10:09.262Z,-10.60
2019-03-13T04:11:09.255Z,-10.55
2019-03-13T04:12:09.282Z,-10.43
2019-03-13T04:13:19.651Z,-10.60
2019-03-13T04:14:09.222Z,-10.62
2019-03-13T04:15:09.217Z,-10.65
2019-03-13T04:16:09.218Z,-10.73
2019-03-13T04:17:09.196Z,-10.79
2019-03-13T04:18:09.212Z,-10.75
2019-03-13T04:19:09.176Z,-10.88
2019-03-13T04:20:09.174Z,-10.93
2019-03-13T04:21:09.172Z,-10.79
2019-03-13T04:22:09.143Z,-10.90
2019-03-13T04:23:09.126Z,-10.86
2019-03-13T04:24:09.641Z,-10.88
2019-03-13T04:25:09.109Z,-10.94
2019-03-13T04:26:12.545Z,-10.97
2019-03-13T04:27:09.133Z,-10.94
2019-03-13T04:28:09.076Z,-11.01
2019-03-13T04:29:09.226Z,-11.11
2019-03-13T04:30:09.076Z,-11.04
2019-03-13T04:31:09.044Z,-11.00
2019-03-13T04:32:09.036Z,-10.95
2019-03-13T04:33:09.029Z,-10.86
2019-03-13T04:34:09.023Z,-10.90
2019-03-13T04:35:09.054Z,-10.94
2019-03-13T04:36:09.033Z,-10.91
2019-03-13T04:37:08.993Z,-11.04
2019-03-13T04:38:08.978Z,-10.91
2019-03-13T04:39:08.967Z,-10.97
2019-03-13T04:40:08.954Z,-10.91
2019-03-13T04:41:08.984Z,-10.95
2019-03-13T04:42:08.982Z,-10.98
2019-03-13T04:43:08.930Z,-10.94
2019-03-13T04:44:19.887Z,-10.94
2019-03-13T04:45:16.407Z,-10.93
2019-03-13T04:46:08.900Z,-10.97
2019-03-13T04:47:09.010Z,-10.94
2019-03-13T04:48:08.890Z,-10.88
2019-03-13T04:49:08.871Z,-10.83
2019-03-13T04:50:08.867Z,-10.72
2019-03-13T04:51:08.842Z,-10.71
2019-03-13T04:52:08.834Z,-10.57
2019-03-13T04:53:08.831Z,-10.64
2019-03-13T04:54:08.856Z,-10.64
2019-03-13T04:55:08.809Z,-10.69
2019-03-13T04:56:08.796Z,-10.69
2019-03-13T04:57:08.792Z,-10.65
2019-03-13T04:58:08.781Z,-10.71
2019-03-13T04:59:08.772Z,-10.55
2019-03-13T05:00:08.790Z,-10.61
2019-03-13T05:01:08.744Z,-10.44
2019-03-13T05:02:08.738Z,-10.40
2019-03-13T05:03:08.728Z,-10.40
2019-03-13T05:04:08.715Z,-10.25
2019-03-13T05:05:08.709Z,-10.16
2019-03-13T05:06:08.733Z,-10.23
2019-03-13T05:07:08.687Z,-10.25
2019-03-13T05:08:08.706Z,-10.28
2019-03-13T05:09:08.663Z,-10.34
2019-03-13T05:10:08.655Z,-10.39
2019-03-13T05:11:08.695Z,-10.55
2019-03-13T05:12:08.678Z,-10.57
2019-03-13T05:13:08.718Z,-10.55
2019-03-13T05:14:08.615Z,-10.54
2019-03-13T05:15:08.603Z,-10.43
2019-03-13T05:16:20.106Z,-10.43
2019-03-13T05:17:08.583Z,-10.44
2019-03-13T05:18:08.578Z,-10.36
2019-03-13T05:19:08.568Z,-10.25
2019-03-13T05:20:08.549Z,-10.21
2019-03-13T05:21:08.543Z,-10.19
2019-03-13T05:22:08.560Z,-10.16
2019-03-13T05:23:08.544Z,-10.22
2019-03-13T05:24:08.509Z,-10.25
2019-03-13T05:25:08.535Z,-10.19
2019-03-13T05:26:08.496Z,-10.16
2019-03-13T05:27:08.481Z,-10.19
2019-03-13T05:28:08.475Z,-10.22
2019-03-13T05:29:08.497Z,-10.05
2019-03-13T05:30:08.473Z,-10.00
2019-03-13T05:31:08.437Z,-9.94
2019-03-13T05:32:08.432Z,-9.95
2019-03-13T05:33:08.429Z,-9.79
2019-03-13T05:34:08.414Z,-9.76
2019-03-13T05:35:08.438Z,-9.76
2019-03-13T05:36:08.429Z,-9.74
2019-03-13T05:37:08.382Z,-9.74
2019-03-13T05:38:08.374Z,-9.80
2019-03-13T05:39:08.367Z,-9.74
2019-03-13T05:40:08.408Z,-9.76
2019-03-13T05:41:08.375Z,-9.76
2019-03-13T05:42:08.326Z,-9.71
2019-03-13T05:43:08.316Z,-9.63
2019-03-13T05:44:08.305Z,-9.56
2019-03-13T05:45:08.605Z,-9.62
2019-03-13T05:46:08.286Z,-9.48
2019-03-13T05:47:20.130Z,-9.41
2019-03-13T05:48:08.267Z,-9.39
2019-03-13T05:49:08.251Z,-9.33
2019-03-13T05:50:08.249Z,-9.28
2019-03-13T05:51:08.236Z,-9.22
2019-03-13T05:52:08.220Z,-9.22
2019-03-13T05:53:08.249Z,-9.25
2019-03-13T05:54:08.198Z,-9.23
2019-03-13T05:55:08.197Z,-9.19
2019-03-13T05:56:08.178Z,-9.14
2019-03-13T05:57:08.166Z,-9.05
2019-03-13T05:58:08.165Z,-9.04
2019-03-13T05:59:08.168Z,-9.05
2019-03-13T06:00:08.138Z,-8.96
2019-03-13T06:01:08.126Z,-8.93
2019-03-13T06:02:08.120Z,-8.84
2019-03-13T06:03:08.105Z,-8.87
2019-03-13T06:04:08.109Z,-8.83
2019-03-13T06:05:08.123Z,-8.81
2019-03-13T06:06:08.084Z,-8.72
2019-03-13T06:07:08.070Z,-8.75
2019-03-13T06:08:08.056Z,-8.70
2019-03-13T06:09:08.046Z,-8.63
2019-03-13T06:10:08.044Z,-8.65
2019-03-13T06:11:08.045Z,-8.58
2019-03-13T06:12:08.011Z,-8.60
2019-03-13T06:13:08.005Z,-8.52
2019-03-13T06:14:07.996Z,-8.50
2019-03-13T06:15:08.001Z,-8.52
2019-03-13T06:16:07.980Z,-8.44
2019-03-13T06:17:07.982Z,-8.42
2019-03-13T06:18:18.026Z,-8.50
2019-03-13T06:19:07.948Z,-8.44
2019-03-13T06:20:10.630Z,-8.42
2019-03-13T06:21:07.921Z,-8.45
2019-03-13T06:22:07.914Z,-8.39
2019-03-13T06:23:07.941Z,-8.30
2019-03-13T06:24:07.895Z,-8.39
2019-03-13T06:25:07.919Z,-8.30
2019-03-13T06:26:07.871Z,-8.31
2019-03-13T06:27:07.858Z,-8.36
2019-03-13T06:28:07.850Z,-8.34
2019-03-13T06:29:07.847Z,-8.31
2019-03-13T06:30:07.830Z,-8.18
2019-03-13T06:31:07.825Z,-8.26
2019-03-13T06:32:07.811Z,-8.13
2019-03-13T06:33:07.795Z,-8.09
2019-03-13T06:34:07.830Z,-8.06
2019-03-13T06:35:07.776Z,-8.01
2019-03-13T06:36:07.773Z,-7.96
2019-03-13T06:37:07.760Z,-7.94
2019-03-13T06:38:07.781Z,-7.91
2019-03-13T06:39:07.734Z,-7.89
2019-03-13T06:40:07.762Z,-7.79
2019-03-13T06:41:07.719Z,-7.78
2019-03-13T06:42:07.708Z,-7.87
2019-03-13T06:43:07.696Z,-7.68
2019-03-13T06:44:07.686Z,-7.69
2019-03-13T06:45:07.682Z,-7.68
2019-03-13T06:46:07.675Z,-7.68
2019-03-13T06:47:07.650Z,-7.62
2019-03-13T06:48:07.640Z,-7.68
2019-03-13T06:49:17.964Z,-7.69
2019-03-13T06:50:07.619Z,-7.64
2019-03-13T06:51:07.631Z,-7.57
2019-03-13T06:52:07.602Z,-7.46
2019-03-13T06:53:07.590Z,-7.48
2019-03-13T06:54:07.591Z,-7.39
2019-03-13T06:55:07.643Z,-7.23
2019-03-13T06:56:07.561Z,-7.21
2019-03-13T06:57:07.578Z,-7.19
2019-03-13T06:58:07.560Z,-7.30
2019-03-13T06:59:07.527Z,-7.22
2019-03-13T07:00:07.524Z,-7.23
2019-03-13T07:01:07.506Z,-7.18
2019-03-13T07:02:07.536Z,-7.15
2019-03-13T07:03:07.529Z,-7.04
2019-03-13T07:04:07.481Z,-7.11
2019-03-13T07:05:07.470Z,-7.01
2019-03-13T07:06:07.463Z,-6.89
2019-03-13T07:07:07.444Z,-6.69
2019-03-13T07:08:07.439Z,-6.74
2019-03-13T07:09:07.440Z,-6.76
2019-03-13T07:10:07.418Z,-6.69
2019-03-13T07:11:07.408Z,-6.65
2019-03-13T07:12:07.430Z,-6.47
2019-03-13T07:13:07.389Z,-6.52
2019-03-13T07:14:07.374Z,-6.42
2019-03-13T07:15:07.413Z,-6.31
2019-03-13T07:16:07.357Z,-6.25
2019-03-13T07:17:07.345Z,-6.29
2019-03-13T07:18:07.335Z,-6.13
2019-03-13T07:19:07.319Z,-6.05
2019-03-13T07:20:18.164Z,-6.03
2019-03-13T07:21:07.316Z,-6.04
2019-03-13T07:22:07.288Z,-5.92
2019-03-13T07:23:07.289Z,-5.80
2019-03-13T07:24:07.273Z,-5.84
2019-03-13T07:25:07.262Z,-5.79
2019-03-13T07:26:07.286Z,-5.89
2019-03-13T07:27:07.241Z,-5.87
2019-03-13T07:28:07.245Z,-5.80
2019-03-13T07:29:11.985Z,-5.71
2019-03-13T07:30:08.209Z,-5.68
2019-03-13T07:31:07.199Z,-5.55
2019-03-13T07:32:07.225Z,-5.62
2019-03-13T07:33:07.199Z,-5.54
2019-03-13T07:34:07.260Z,-5.41
2019-03-13T07:35:07.160Z,-5.18
2019-03-13T07:36:07.151Z,-4.43
2019-03-13T07:37:07.135Z,-4.06
2019-03-13T07:38:07.136Z,-3.31
2019-03-13T07:39:07.126Z,-2.82
2019-03-13T07:40:07.108Z,-2.20
2019-03-13T07:41:07.111Z,-1.92
2019-03-13T07:42:07.087Z,-1.16
2019-03-13T07:43:07.114Z,-0.57
2019-03-13T07:44:07.063Z,-0.85
2019-03-13T07:45:07.059Z,-1.73
2019-03-13T07:46:07.041Z,-2.02
2019-03-13T07:47:07.032Z,-1.97
2019-03-13T07:48:07.022Z,-1.27
2019-03-13T07:49:07.026Z,-0.69
2019-03-13T07:50:14.571Z,-0.39
2019-03-13T07:51:06.985Z,-0.23
2019-03-13T07:52:06.973Z,-0.47
2019-03-13T07:53:06.966Z,-0.33
2019-03-13T07:54:06.949Z,-0.07
2019-03-13T07:55:06.982Z,0.17
2019-03-13T07:56:06.938Z,0.28
2019-03-13T07:57:06.929Z,0.35
2019-03-13T07:58:06.908Z,0.33
2019-03-13T07:59:06.895Z,0.50
2019-03-13T08:00:06.887Z,0.53
2019-03-13T08:01:06.919Z,0.49
2019-03-13T08:02:06.880Z,-0.15
2019-03-13T08:03:06.879Z,-0.01
2019-03-13T08:04:06.883Z,0.15
2019-03-13T08:05:06.835Z,0.33
2019-03-13T08:06:06.833Z,0.47
2019-03-13T08:07:06.850Z,0.69
2019-03-13T08:08:06.812Z,0.41
2019-03-13T08:09:06.788Z,0.03
2019-03-13T08:10:06.775Z,-0.26
2019-03-13T08:11:06.767Z,-0.11
2019-03-13T08:12:06.753Z,0.46
2019-03-13T08:13:06.794Z,1.14
2019-03-13T08:14:06.735Z,1.20
2019-03-13T08:15:06.720Z,1.34
2019-03-13T08:16:06.712Z,1.18
2019-03-13T08:17:06.716Z,0.80
2019-03-13T08:18:06.688Z,0.57
2019-03-13T08:19:06.720Z,0.38
2019-03-13T08:20:06.669Z,-0.05
2019-03-13T08:21:19.111Z,-0.54
2019-03-13T08:22:06.643Z,-0.73
2019-03-13T08:23:06.631Z,-0.99
2019-03-13T08:24:06.622Z,-1.10
2019-03-13T08:25:08.064Z,-1.15
2019-03-13T08:26:06.606Z,-0.80
2019-03-13T08:27:06.585Z,-0.55
2019-03-13T08:28:06.581Z,-0.52
2019-03-13T08:29:06.566Z,-0.43
2019-03-13T08:30:06.607Z,-0.49
2019-03-13T08:31:06.567Z,-0.37
2019-03-13T08:32:06.539Z,-0.36
2019-03-13T08:33:06.522Z,-0.18
2019-03-13T08:34:06.514Z,0.18
2019-03-13T08:35:06.511Z,0.38
2019-03-13T08:36:06.502Z,0.53
2019-03-13T08:37:06.519Z,0.66
2019-03-13T08:38:06.472Z,0.96
2019-03-13T08:39:06.461Z,1.62
2019-03-13T08:40:06.542Z,2.02
2019-03-13T08:41:06.437Z,2.39
2019-03-13T08:42:06.423Z,2.89
2019-03-13T08:43:06.711Z,2.57
2019-03-13T08:44:06.407Z,3.39
2019-03-13T08:45:06.396Z,3.93
2019-03-13T08:46:06.386Z,2.85
2019-03-13T08:47:06.377Z,2.05
2019-03-13T08:48:06.361Z,1.88
2019-03-13T08:49:06.391Z,2.27
2019-03-13T08:50:06.339Z,1.79
2019-03-13T08:51:06.380Z,2.03
2019-03-13T08:52:16.684Z,1.77
2019-03-13T08:53:06.307Z,2.24
2019-03-13T08:54:06.295Z,2.57
2019-03-13T08:55:06.316Z,2.06
2019-03-13T08:56:06.273Z,1.83
2019-03-13T08:57:06.271Z,1.20
2019-03-13T08:58:06.296Z,1.20
2019-03-13T08:59:06.235Z,1.81
2019-03-13T09:00:06.300Z,2.00
2019-03-13T09:01:06.290Z,2.89
2019-03-13T09:02:06.241Z,4.00
2019-03-13T09:03:06.193Z,4.59
2019-03-13T09:04:06.205Z,5.10
2019-03-13T09:05:06.180Z,4.48
2019-03-13T09:06:06.195Z,4.58
2019-03-13T09:07:06.157Z,4.94
2019-03-13T09:08:06.138Z,5.07
2019-03-13T09:09:06.129Z,5.46
2019-03-13T09:10:06.159Z,5.46
2019-03-13T09:11:06.125Z,4.34
2019-03-13T09:12:06.097Z,2.72
2019-03-13T09:13:06.086Z,3.80
2019-03-13T09:14:06.082Z,5.48
2019-03-13T09:15:06.066Z,5.60
2019-03-13T09:16:06.050Z,4.65
2019-03-13T09:17:06.051Z,3.68
2019-03-13T09:18:06.035Z,4.60
2019-03-13T09:19:06.025Z,4.96
2019-03-13T09:20:06.007Z,3.75
2019-03-13T09:21:05.997Z,5.30
2019-03-13T09:22:06.018Z,6.89
2019-03-13T09:23:16.044Z,7.58
2019-03-13T09:24:05.966Z,8.50
2019-03-13T09:25:11.882Z,9.33
2019-03-13T09:26:06.945Z,9.76
2019-03-13T09:27:05.947Z,10.32
2019-03-13T09:28:05.987Z,9.60
2019-03-13T09:29:05.908Z,9.15
2019-03-13T09:30:05.896Z,10.51
2019-03-13T09:31:05.885Z,8.50
2019-03-13T09:32:05.879Z,6.91
2019-03-13T09:33:05.891Z,5.31
2019-03-13T09:34:05.892Z,3.84
2019-03-13T09:35:05.841Z,3.05
2019-03-13T09:36:05.832Z,2.69
2019-03-13T09:37:05.850Z,2.57
2019-03-13T09:38:05.810Z,1.87
2019-03-13T09:39:05.804Z,1.12
2019-03-13T09:40:05.802Z,0.53
2019-03-13T09:41:05.777Z,0.17
2019-03-13T09:42:05.776Z,-0.36
2019-03-13T09:43:05.766Z,-0.44
2019-03-13T09:44:05.800Z,-0.25
2019-03-13T09:45:05.734Z,-0.07
2019-03-13T09:46:05.763Z,-0.03
2019-03-13T09:47:05.714Z,0.11
2019-03-13T09:48:05.713Z,0.18
2019-03-13T09:49:05.721Z,0.08
2019-03-13T09:50:05.696Z,0.35
2019-03-13T09:51:05.677Z,0.55
2019-03-13T09:52:05.676Z,0.44
2019-03-13T09:53:05.676Z,0.58
2019-03-13T09:54:15.861Z,0.72
2019-03-13T09:55:05.628Z,0.70
2019-03-13T09:56:05.659Z,0.07
2019-03-13T09:57:05.605Z,-0.22
2019-03-13T09:58:05.618Z,-0.70
2019-03-13T09:59:05.582Z,-0.72
2019-03-13T10:00:05.576Z,-0.47
2019-03-13T10:01:05.581Z,-0.31
2019-03-13T10:02:05.580Z,-0.10
2019-03-13T10:03:05.541Z,-0.22
2019-03-13T10:04:05.526Z,-0.23
2019-03-13T10:05:06.218Z,-0.40
2019-03-13T10:06:05.543Z,-0.33
2019-03-13T10:07:05.518Z,-0.19
2019-03-13T10:08:05.535Z,-0.28
2019-03-13T10:09:05.470Z,-0.62
2019-03-13T10:10:05.467Z,-0.78
2019-03-13T10:11:05.527Z,-0.54
2019-03-13T10:12:05.447Z,-0.47
2019-03-13T10:13:05.434Z,-0.43
2019-03-13T10:14:05.438Z,-0.44
2019-03-13T10:15:05.406Z,-0.51
2019-03-13T10:16:05.391Z,-0.67
2019-03-13T10:17:11.029Z,-0.72
2019-03-13T10:18:06.380Z,-0.86
2019-03-13T10:19:05.369Z,-0.73
2019-03-13T10:20:05.358Z,-0.78
2019-03-13T10:21:05.345Z,-0.62
2019-03-13T10:22:05.331Z,-0.49
2019-03-13T10:23:05.367Z,-0.36
2019-03-13T10:24:05.309Z,-0.57
2019-03-13T10:25:15.998Z,-0.91
2019-03-13T10:26:05.285Z,-0.72
2019-03-13T10:27:05.274Z,-0.51
2019-03-13T10:28:05.266Z,-0.18
2019-03-13T10:29:05.260Z,-0.28
2019-03-13T10:30:05.260Z,-0.34
2019-03-13T10:31:05.239Z,-0.49
2019-03-13T10:32:05.220Z,-0.78
2019-03-13T10:33:05.210Z,-0.73
2019-03-13T10:34:05.227Z,-0.80
2019-03-13T10:35:05.192Z,-0.73
2019-03-13T10:36:05.177Z,-0.42
2019-03-13T10:37:05.164Z,-0.26
2019-03-13T10:38:13.934Z,-0.31
2019-03-13T10:39:06.214Z,-0.18
2019-03-13T10:40:05.137Z,-0.08
2019-03-13T10:41:05.120Z,-0.34
2019-03-13T10:42:05.114Z,-0.33
2019-03-13T10:43:05.104Z,-0.51
2019-03-13T10:44:05.092Z,-0.52
2019-03-13T10:45:05.140Z,-0.82
2019-03-13T10:46:05.071Z,-0.65
2019-03-13T10:47:05.060Z,-0.46
2019-03-13T10:48:05.045Z,-0.39
2019-03-13T10:49:05.042Z,-0.21
2019-03-13T10:50:05.024Z,-0.47
2019-03-13T10:51:05.082Z,-0.37
2019-03-13T10:52:05.008Z,-0.47
2019-03-13T10:53:04.993Z,-0.34
2019-03-13T10:54:04.986Z,-0.37
2019-03-13T10:55:04.971Z,-0.40
2019-03-13T10:56:15.820Z,-0.64
2019-03-13T10:57:04.954Z,-0.70
2019-03-13T10:58:04.944Z,-0.42
2019-03-13T10:59:04.923Z,-0.99
2019-03-13T11:00:04.913Z,-1.13
2019-03-13T11:01:04.906Z,-1.12
2019-03-13T11:02:04.918Z,-0.99
2019-03-13T11:03:04.886Z,-0.75
2019-03-13T11:04:04.869Z,-0.70
2019-03-13T11:05:04.862Z,-1.02
2019-03-13T11:06:04.866Z,-1.37
2019-03-13T11:07:04.853Z,-1.31
2019-03-13T11:08:04.862Z,-1.16
2019-03-13T11:09:04.816Z,-1.15
2019-03-13T11:10:04.809Z,-1.13
2019-03-13T11:11:04.836Z,-1.27
2019-03-13T11:12:04.783Z,-1.12
2019-03-13T11:13:04.782Z,-1.12
2019-03-13T11:14:15.728Z,-1.16
2019-03-13T11:15:04.761Z,-1.16
2019-03-13T11:16:04.738Z,-0.99
2019-03-13T11:17:04.740Z,-0.83
2019-03-13T11:18:04.720Z,-0.76
2019-03-13T11:19:04.711Z,-0.89
2019-03-13T11:20:04.742Z,-0.80
2019-03-13T11:21:04.688Z,-0.58
2019-03-13T11:22:04.683Z,-0.82
2019-03-13T11:23:04.672Z,-1.10
2019-03-13T11:24:04.659Z,-1.16
2019-03-13T11:25:04.649Z,-1.22
2019-03-13T11:26:04.697Z,-1.27
2019-03-13T11:27:04.711Z,-1.49
2019-03-13T11:28:04.612Z,-1.23
2019-03-13T11:29:04.609Z,-1.23
2019-03-13T11:30:04.597Z,-1.15
2019-03-13T11:31:04.585Z,-1.19
2019-03-13T11:32:04.610Z,-1.27
2019-03-13T11:33:04.560Z,-1.28
2019-03-13T11:34:04.552Z,-1.23
2019-03-13T11:35:04.530Z,-1.27
2019-03-13T11:36:04.521Z,-1.12
2019-03-13T11:37:11.867Z,-0.89
2019-03-13T11:38:04.506Z,-1.22
2019-03-13T11:39:04.491Z,-1.22
2019-03-13T11:40:04.479Z,-1.10
2019-03-13T11:41:04.480Z,-0.98
2019-03-13T11:42:04.468Z,-1.10
2019-03-13T11:43:04.461Z,-1.12
2019-03-13T11:44:04.437Z,-1.04
2019-03-13T11:45:04.437Z,-1.10
2019-03-13T11:46:04.418Z,-1.19
2019-03-13T11:47:04.407Z,-1.23
2019-03-13T11:48:04.411Z,-1.41
2019-03-13T11:49:04.381Z,-1.20
2019-03-13T11:50:04.379Z,-1.10
2019-03-13T11:51:04.363Z,-0.91
2019-03-13T11:52:04.354Z,-1.09
2019-03-13T11:53:04.344Z,-1.22
2019-03-13T11:54:04.380Z,-1.34
2019-03-13T11:55:04.322Z,-1.28
2019-03-13T11:56:04.327Z,-1.37
2019-03-13T11:57:04.300Z,-1.25
2019-03-13T11:58:04.289Z,-1.19
2019-03-13T11:59:04.279Z,-1.48
2019-03-13T12:00:04.320Z,-1.59
2019-03-13T12:01:04.252Z,-1.56
2019-03-13T12:02:04.240Z,-1.72
2019-03-13T12:03:04.245Z,-1.55
2019-03-13T12:04:04.222Z,-1.67
2019-03-13T12:05:04.221Z,-1.62
2019-03-13T12:06:04.229Z,-1.70
2019-03-13T12:07:04.197Z,-1.35
2019-03-13T12:08:14.515Z,-1.37
2019-03-13T12:09:04.175Z,-1.25
2019-03-13T12:10:04.163Z,-1.64
2019-03-13T12:11:04.156Z,-1.58
2019-03-13T12:12:04.150Z,-1.49
2019-03-13T12:13:04.138Z,-1.58
2019-03-13T12:14:04.115Z,-1.70
2019-03-13T12:15:04.107Z,-1.66
2019-03-13T12:16:04.128Z,-1.66
2019-03-13T12:17:04.104Z,-1.52
2019-03-13T12:18:04.076Z,-1.51
2019-03-13T12:19:04.066Z,-1.58
2019-03-13T12:20:04.054Z,-1.67
2019-03-13T12:21:04.057Z,-1.73
2019-03-13T12:22:04.041Z,-1.66
2019-03-13T12:23:04.059Z,-1.85
2019-03-13T12:24:04.006Z,-1.95
2019-03-13T12:25:04.003Z,-2.06
2019-03-13T12:26:03.990Z,-1.91
2019-03-13T12:27:03.982Z,-1.82
2019-03-13T12:28:03.980Z,-1.77
2019-03-13T12:29:04.382Z,-1.80
2019-03-13T12:30:03.947Z,-1.98
2019-03-13T12:31:03.933Z,-1.85
2019-03-13T12:32:03.925Z,-1.79
2019-03-13T12:33:03.916Z,-1.91
2019-03-13T12:34:03.903Z,-1.87
2019-03-13T12:35:03.930Z,-1.61
2019-03-13T12:36:03.884Z,-1.52
2019-03-13T12:37:03.873Z,-1.35
2019-03-13T12:38:03.858Z,-1.43
2019-03-13T12:39:13.991Z,-1.61
2019-03-13T12:40:03.835Z,-1.61
2019-03-13T12:41:03.860Z,-1.74
2019-03-13T12:42:03.819Z,-1.52
2019-03-13T12:43:03.809Z,-1.67
2019-03-13T12:44:03.798Z,-1.73
2019-03-13T12:45:03.788Z,-1.61
2019-03-13T12:46:03.779Z,-1.76
2019-03-13T12:47:03.801Z,-1.92
2019-03-13T12:48:15.853Z,-1.74
2019-03-13T12:49:04.742Z,-1.69
2019-03-13T12:50:03.736Z,-1.79
2019-03-13T12:51:03.721Z,-1.88